sensor_id;sensor_type;location;lat;lon;timestamp;P1;durP1;ratioP1;P2;durP2;ratioP2
56949;SDS011;74437;50.080;19.924;2024-01-16T00:01:14;13.02;;;5.20;;
56949;SDS011;74437;50.080;19.924;2024-01-16T00:03:40;13.55;;;6.47;;
56949;SDS011;74437;50.080;19.924;2024-01-16T00:06:05;12.95;;;6.60;;
56949;SDS011;74437;50.080;19.924;2024-01-16T00:08:31;11.80;;;5.68;;
56949;SDS011;74437;50.080;19.924;2024-01-16T00:10:57;13.25;;;6.30;;
56949;SDS011;74437;50.080;19.924;2024-01-16T00:13:22;11.43;;;6.82;;
56949;SDS011;74437;50.080;19.924;2024-01-16T00:15:47;15.93;;;6.85;;
56949;SDS011;74437;50.080;19.924;2024-01-16T00:18:14;10.60;;;6.35;;
56949;SDS011;74437;50.080;19.924;2024-01-16T00:20:40;13.77;;;7.03;;
56949;SDS011;74437;50.080;19.924;2024-01-16T00:23:05;16.75;;;7.05;;
56949;SDS011;74437;50.080;19.924;2024-01-16T00:25:30;11.93;;;6.25;;
56949;SDS011;74437;50.080;19.924;2024-01-16T00:27:56;16.23;;;7.10;;
56949;SDS011;74437;50.080;19.924;2024-01-16T00:30:21;13.05;;;7.30;;
56949;SDS011;74437;50.080;19.924;2024-01-16T00:32:46;13.52;;;6.80;;
56949;SDS011;74437;50.080;19.924;2024-01-16T00:35:12;13.00;;;6.70;;
56949;SDS011;74437;50.080;19.924;2024-01-16T00:37:37;13.50;;;7.78;;
56949;SDS011;74437;50.080;19.924;2024-01-16T00:40:03;13.48;;;7.57;;
56949;SDS011;74437;50.080;19.924;2024-01-16T00:42:29;15.23;;;7.85;;
56949;SDS011;74437;50.080;19.924;2024-01-16T00:44:55;13.63;;;7.70;;
56949;SDS011;74437;50.080;19.924;2024-01-16T00:47:20;13.73;;;7.82;;
56949;SDS011;74437;50.080;19.924;2024-01-16T00:49:46;16.30;;;6.93;;
56949;SDS011;74437;50.080;19.924;2024-01-16T00:52:11;13.55;;;7.65;;
56949;SDS011;74437;50.080;19.924;2024-01-16T00:54:36;15.43;;;7.93;;
56949;SDS011;74437;50.080;19.924;2024-01-16T00:57:01;14.18;;;8.23;;
56949;SDS011;74437;50.080;19.924;2024-01-16T00:59:27;14.85;;;7.35;;
56949;SDS011;74437;50.080;19.924;2024-01-16T01:01:52;14.15;;;8.00;;
56949;SDS011;74437;50.080;19.924;2024-01-16T01:04:18;16.23;;;8.25;;
56949;SDS011;74437;50.080;19.924;2024-01-16T01:06:43;13.27;;;7.70;;
56949;SDS011;74437;50.080;19.924;2024-01-16T01:09:09;15.35;;;7.07;;
56949;SDS011;74437;50.080;19.924;2024-01-16T01:11:36;15.70;;;7.80;;
56949;SDS011;74437;50.080;19.924;2024-01-16T01:14:02;17.15;;;9.75;;
56949;SDS011;74437;50.080;19.924;2024-01-16T01:16:28;16.55;;;8.13;;
56949;SDS011;74437;50.080;19.924;2024-01-16T01:18:53;16.15;;;7.80;;
56949;SDS011;74437;50.080;19.924;2024-01-16T01:21:18;18.60;;;8.68;;
56949;SDS011;74437;50.080;19.924;2024-01-16T01:23:43;16.27;;;8.60;;
56949;SDS011;74437;50.080;19.924;2024-01-16T01:26:09;13.98;;;8.07;;
56949;SDS011;74437;50.080;19.924;2024-01-16T01:28:34;16.00;;;7.70;;
56949;SDS011;74437;50.080;19.924;2024-01-16T01:30:59;16.38;;;8.35;;
56949;SDS011;74437;50.080;19.924;2024-01-16T01:33:25;15.82;;;8.57;;
56949;SDS011;74437;50.080;19.924;2024-01-16T01:35:50;15.07;;;7.80;;
56949;SDS011;74437;50.080;19.924;2024-01-16T01:38:15;13.93;;;7.05;;
56949;SDS011;74437;50.080;19.924;2024-01-16T01:40:41;11.63;;;6.57;;
56949;SDS011;74437;50.080;19.924;2024-01-16T01:43:18;14.80;;;7.30;;
56949;SDS011;74437;50.080;19.924;2024-01-16T01:45:46;14.88;;;7.55;;
56949;SDS011;74437;50.080;19.924;2024-01-16T01:48:21;17.45;;;7.82;;
56949;SDS011;74437;50.080;19.924;2024-01-16T01:50:47;15.88;;;6.88;;
56949;SDS011;74437;50.080;19.924;2024-01-16T01:53:13;13.98;;;7.50;;
56949;SDS011;74437;50.080;19.924;2024-01-16T01:55:38;14.88;;;8.25;;
56949;SDS011;74437;50.080;19.924;2024-01-16T01:58:04;10.48;;;6.45;;
56949;SDS011;74437;50.080;19.924;2024-01-16T02:00:30;15.45;;;7.47;;
56949;SDS011;74437;50.080;19.924;2024-01-16T02:02:56;16.85;;;8.70;;
56949;SDS011;74437;50.080;19.924;2024-01-16T02:05:21;14.77;;;7.22;;
56949;SDS011;74437;50.080;19.924;2024-01-16T02:07:47;15.90;;;8.23;;
56949;SDS011;74437;50.080;19.924;2024-01-16T02:10:12;16.42;;;8.75;;
56949;SDS011;74437;50.080;19.924;2024-01-16T02:12:38;16.08;;;8.90;;
56949;SDS011;74437;50.080;19.924;2024-01-16T02:15:03;18.35;;;8.68;;
56949;SDS011;74437;50.080;19.924;2024-01-16T02:17:29;15.55;;;8.23;;
56949;SDS011;74437;50.080;19.924;2024-01-16T02:19:54;15.88;;;7.60;;
56949;SDS011;74437;50.080;19.924;2024-01-16T02:22:19;16.48;;;8.65;;
56949;SDS011;74437;50.080;19.924;2024-01-16T02:24:48;18.55;;;9.45;;
56949;SDS011;74437;50.080;19.924;2024-01-16T02:27:14;18.75;;;8.50;;
56949;SDS011;74437;50.080;19.924;2024-01-16T02:29:42;16.45;;;9.30;;
56949;SDS011;74437;50.080;19.924;2024-01-16T02:32:09;14.93;;;7.60;;
56949;SDS011;74437;50.080;19.924;2024-01-16T02:34:37;15.23;;;8.93;;
56949;SDS011;74437;50.080;19.924;2024-01-16T02:37:03;17.30;;;8.63;;
56949;SDS011;74437;50.080;19.924;2024-01-16T02:39:29;14.30;;;7.70;;
56949;SDS011;74437;50.080;19.924;2024-01-16T02:41:54;14.07;;;7.53;;
56949;SDS011;74437;50.080;19.924;2024-01-16T02:44:19;11.68;;;7.38;;
56949;SDS011;74437;50.080;19.924;2024-01-16T02:46:45;15.18;;;8.18;;
56949;SDS011;74437;50.080;19.924;2024-01-16T02:49:10;16.48;;;8.55;;
56949;SDS011;74437;50.080;19.924;2024-01-16T02:51:35;12.93;;;7.35;;
56949;SDS011;74437;50.080;19.924;2024-01-16T02:54:00;14.90;;;8.38;;
56949;SDS011;74437;50.080;19.924;2024-01-16T02:56:26;13.77;;;7.55;;
56949;SDS011;74437;50.080;19.924;2024-01-16T02:58:51;14.32;;;7.88;;
56949;SDS011;74437;50.080;19.924;2024-01-16T03:01:16;11.77;;;5.20;;
56949;SDS011;74437;50.080;19.924;2024-01-16T03:03:41;16.42;;;7.53;;
56949;SDS011;74437;50.080;19.924;2024-01-16T03:06:07;20.00;;;7.45;;
56949;SDS011;74437;50.080;19.924;2024-01-16T03:08:32;13.27;;;7.57;;
56949;SDS011;74437;50.080;19.924;2024-01-16T03:10:57;14.82;;;7.78;;
56949;SDS011;74437;50.080;19.924;2024-01-16T03:13:23;5.85;;;4.07;;
56949;SDS011;74437;50.080;19.924;2024-01-16T03:15:48;11.13;;;6.13;;
56949;SDS011;74437;50.080;19.924;2024-01-16T03:18:13;14.60;;;8.35;;
56949;SDS011;74437;50.080;19.924;2024-01-16T03:20:39;11.95;;;6.60;;
56949;SDS011;74437;50.080;19.924;2024-01-16T03:23:04;14.70;;;6.45;;
56949;SDS011;74437;50.080;19.924;2024-01-16T03:25:29;12.93;;;6.20;;
56949;SDS011;74437;50.080;19.924;2024-01-16T03:27:54;13.40;;;6.97;;
56949;SDS011;74437;50.080;19.924;2024-01-16T03:30:20;12.25;;;6.45;;
56949;SDS011;74437;50.080;19.924;2024-01-16T03:32:45;12.63;;;6.22;;
56949;SDS011;74437;50.080;19.924;2024-01-16T03:35:10;12.65;;;6.03;;
56949;SDS011;74437;50.080;19.924;2024-01-16T03:37:37;10.32;;;5.85;;
56949;SDS011;74437;50.080;19.924;2024-01-16T03:40:03;9.25;;;5.80;;
56949;SDS011;74437;50.080;19.924;2024-01-16T03:42:28;10.98;;;5.47;;
56949;SDS011;74437;50.080;19.924;2024-01-16T03:44:53;9.27;;;5.65;;
56949;SDS011;74437;50.080;19.924;2024-01-16T03:47:19;11.60;;;5.22;;
56949;SDS011;74437;50.080;19.924;2024-01-16T03:49:44;17.00;;;6.38;;
56949;SDS011;74437;50.080;19.924;2024-01-16T03:52:10;12.00;;;5.53;;
56949;SDS011;74437;50.080;19.924;2024-01-16T03:54:35;9.32;;;5.65;;
56949;SDS011;74437;50.080;19.924;2024-01-16T03:57:00;8.93;;;5.45;;
56949;SDS011;74437;50.080;19.924;2024-01-16T03:59:26;10.98;;;6.05;;
56949;SDS011;74437;50.080;19.924;2024-01-16T04:01:51;10.82;;;5.70;;
56949;SDS011;74437;50.080;19.924;2024-01-16T04:04:17;9.50;;;5.78;;
56949;SDS011;74437;50.080;19.924;2024-01-16T04:06:42;9.40;;;3.75;;
56949;SDS011;74437;50.080;19.924;2024-01-16T04:09:08;9.38;;;5.28;;
56949;SDS011;74437;50.080;19.924;2024-01-16T04:11:34;10.93;;;6.20;;
56949;SDS011;74437;50.080;19.924;2024-01-16T04:14:00;8.55;;;5.20;;
56949;SDS011;74437;50.080;19.924;2024-01-16T04:16:25;8.68;;;5.32;;
56949;SDS011;74437;50.080;19.924;2024-01-16T04:18:51;8.48;;;5.00;;
56949;SDS011;74437;50.080;19.924;2024-01-16T04:21:17;9.25;;;5.68;;
56949;SDS011;74437;50.080;19.924;2024-01-16T04:23:42;10.32;;;6.13;;
56949;SDS011;74437;50.080;19.924;2024-01-16T04:26:07;10.63;;;6.03;;
56949;SDS011;74437;50.080;19.924;2024-01-16T04:28:33;9.40;;;5.72;;
56949;SDS011;74437;50.080;19.924;2024-01-16T04:30:59;10.50;;;6.00;;
56949;SDS011;74437;50.080;19.924;2024-01-16T04:33:25;14.50;;;6.65;;
56949;SDS011;74437;50.080;19.924;2024-01-16T04:35:50;8.45;;;5.10;;
56949;SDS011;74437;50.080;19.924;2024-01-16T04:38:16;9.15;;;5.28;;
56949;SDS011;74437;50.080;19.924;2024-01-16T04:40:41;13.85;;;7.13;;
56949;SDS011;74437;50.080;19.924;2024-01-16T04:43:06;9.15;;;4.88;;
56949;SDS011;74437;50.080;19.924;2024-01-16T04:45:31;13.13;;;7.05;;
56949;SDS011;74437;50.080;19.924;2024-01-16T04:47:57;11.30;;;6.57;;
56949;SDS011;74437;50.080;19.924;2024-01-16T04:50:22;11.13;;;6.60;;
56949;SDS011;74437;50.080;19.924;2024-01-16T04:52:48;12.27;;;6.70;;
56949;SDS011;74437;50.080;19.924;2024-01-16T04:55:13;14.18;;;7.47;;
56949;SDS011;74437;50.080;19.924;2024-01-16T04:57:39;11.60;;;6.25;;
56949;SDS011;74437;50.080;19.924;2024-01-16T05:00:05;12.38;;;6.53;;
56949;SDS011;74437;50.080;19.924;2024-01-16T05:02:34;12.85;;;6.63;;
56949;SDS011;74437;50.080;19.924;2024-01-16T05:05:00;11.30;;;6.28;;
56949;SDS011;74437;50.080;19.924;2024-01-16T05:07:25;10.38;;;5.45;;
56949;SDS011;74437;50.080;19.924;2024-01-16T05:09:51;7.90;;;4.28;;
56949;SDS011;74437;50.080;19.924;2024-01-16T05:12:17;9.35;;;6.05;;
56949;SDS011;74437;50.080;19.924;2024-01-16T05:14:42;9.65;;;5.43;;
56949;SDS011;74437;50.080;19.924;2024-01-16T05:17:07;9.63;;;6.00;;
56949;SDS011;74437;50.080;19.924;2024-01-16T05:19:33;10.73;;;5.10;;
56949;SDS011;74437;50.080;19.924;2024-01-16T05:21:58;10.02;;;5.00;;
56949;SDS011;74437;50.080;19.924;2024-01-16T05:24:23;12.13;;;6.45;;
56949;SDS011;74437;50.080;19.924;2024-01-16T05:26:49;6.53;;;3.50;;
56949;SDS011;74437;50.080;19.924;2024-01-16T05:29:14;12.60;;;6.50;;
56949;SDS011;74437;50.080;19.924;2024-01-16T05:31:42;13.63;;;7.10;;
56949;SDS011;74437;50.080;19.924;2024-01-16T05:34:08;11.45;;;6.25;;
56949;SDS011;74437;50.080;19.924;2024-01-16T05:36:36;10.93;;;5.90;;
56949;SDS011;74437;50.080;19.924;2024-01-16T05:39:01;13.32;;;7.28;;
56949;SDS011;74437;50.080;19.924;2024-01-16T05:41:27;13.20;;;6.03;;
56949;SDS011;74437;50.080;19.924;2024-01-16T05:43:56;12.35;;;6.90;;
56949;SDS011;74437;50.080;19.924;2024-01-16T05:46:22;12.32;;;7.63;;
56949;SDS011;74437;50.080;19.924;2024-01-16T05:48:47;14.05;;;7.18;;
56949;SDS011;74437;50.080;19.924;2024-01-16T05:51:12;11.90;;;5.88;;
56949;SDS011;74437;50.080;19.924;2024-01-16T05:53:37;14.50;;;6.80;;
56949;SDS011;74437;50.080;19.924;2024-01-16T05:56:03;13.48;;;6.05;;
56949;SDS011;74437;50.080;19.924;2024-01-16T05:58:28;15.30;;;6.13;;
56949;SDS011;74437;50.080;19.924;2024-01-16T06:00:54;12.88;;;6.32;;
56949;SDS011;74437;50.080;19.924;2024-01-16T06:03:20;12.05;;;6.18;;
56949;SDS011;74437;50.080;19.924;2024-01-16T06:05:46;15.57;;;6.80;;
56949;SDS011;74437;50.080;19.924;2024-01-16T06:08:11;15.55;;;6.53;;
56949;SDS011;74437;50.080;19.924;2024-01-16T06:10:36;11.82;;;6.07;;
56949;SDS011;74437;50.080;19.924;2024-01-16T06:13:01;17.23;;;6.85;;
56949;SDS011;74437;50.080;19.924;2024-01-16T06:15:27;13.90;;;6.85;;
56949;SDS011;74437;50.080;19.924;2024-01-16T06:17:52;18.30;;;5.88;;
56949;SDS011;74437;50.080;19.924;2024-01-16T06:20:17;16.42;;;6.28;;
56949;SDS011;74437;50.080;19.924;2024-01-16T06:22:43;12.93;;;5.65;;
56949;SDS011;74437;50.080;19.924;2024-01-16T06:25:08;18.50;;;7.13;;
56949;SDS011;74437;50.080;19.924;2024-01-16T06:27:33;14.43;;;6.15;;
56949;SDS011;74437;50.080;19.924;2024-01-16T06:29:59;16.23;;;6.18;;
56949;SDS011;74437;50.080;19.924;2024-01-16T06:32:24;12.88;;;5.85;;
56949;SDS011;74437;50.080;19.924;2024-01-16T06:34:49;13.93;;;6.38;;
56949;SDS011;74437;50.080;19.924;2024-01-16T06:37:15;14.05;;;6.45;;
56949;SDS011;74437;50.080;19.924;2024-01-16T06:39:40;12.57;;;6.00;;
56949;SDS011;74437;50.080;19.924;2024-01-16T06:42:06;11.82;;;5.63;;
56949;SDS011;74437;50.080;19.924;2024-01-16T06:44:31;11.02;;;5.68;;
56949;SDS011;74437;50.080;19.924;2024-01-16T06:46:56;12.25;;;5.28;;
56949;SDS011;74437;50.080;19.924;2024-01-16T06:49:22;10.15;;;5.80;;
56949;SDS011;74437;50.080;19.924;2024-01-16T06:51:47;15.45;;;5.57;;
56949;SDS011;74437;50.080;19.924;2024-01-16T06:54:12;11.63;;;5.93;;
56949;SDS011;74437;50.080;19.924;2024-01-16T06:56:38;12.13;;;5.60;;
56949;SDS011;74437;50.080;19.924;2024-01-16T06:59:03;12.65;;;6.30;;
56949;SDS011;74437;50.080;19.924;2024-01-16T07:01:28;10.98;;;5.85;;
56949;SDS011;74437;50.080;19.924;2024-01-16T07:03:54;11.50;;;5.50;;
56949;SDS011;74437;50.080;19.924;2024-01-16T07:06:19;15.60;;;6.20;;
56949;SDS011;74437;50.080;19.924;2024-01-16T07:08:45;8.65;;;5.55;;
56949;SDS011;74437;50.080;19.924;2024-01-16T07:11:10;13.20;;;6.53;;
56949;SDS011;74437;50.080;19.924;2024-01-16T07:13:39;15.55;;;7.20;;
56949;SDS011;74437;50.080;19.924;2024-01-16T07:16:05;12.80;;;7.30;;
56949;SDS011;74437;50.080;19.924;2024-01-16T07:18:34;12.90;;;6.60;;
56949;SDS011;74437;50.080;19.924;2024-01-16T07:20:59;13.98;;;7.20;;
56949;SDS011;74437;50.080;19.924;2024-01-16T07:23:24;14.80;;;7.68;;
56949;SDS011;74437;50.080;19.924;2024-01-16T07:25:50;14.35;;;7.85;;
56949;SDS011;74437;50.080;19.924;2024-01-16T07:28:15;13.48;;;7.00;;
56949;SDS011;74437;50.080;19.924;2024-01-16T07:30:41;16.48;;;7.30;;
56949;SDS011;74437;50.080;19.924;2024-01-16T07:33:06;12.95;;;7.43;;
56949;SDS011;74437;50.080;19.924;2024-01-16T07:35:31;14.60;;;7.72;;
56949;SDS011;74437;50.080;19.924;2024-01-16T07:37:56;16.90;;;8.18;;
56949;SDS011;74437;50.080;19.924;2024-01-16T07:40:22;17.42;;;8.45;;
56949;SDS011;74437;50.080;19.924;2024-01-16T07:42:48;16.55;;;8.45;;
56949;SDS011;74437;50.080;19.924;2024-01-16T07:45:14;19.63;;;8.43;;
56949;SDS011;74437;50.080;19.924;2024-01-16T07:47:39;18.52;;;8.98;;
56949;SDS011;74437;50.080;19.924;2024-01-16T07:50:04;19.15;;;9.13;;
56949;SDS011;74437;50.080;19.924;2024-01-16T07:52:31;16.35;;;9.07;;
56949;SDS011;74437;50.080;19.924;2024-01-16T07:54:56;15.48;;;8.73;;
56949;SDS011;74437;50.080;19.924;2024-01-16T07:57:22;17.13;;;8.68;;
56949;SDS011;74437;50.080;19.924;2024-01-16T07:59:47;20.15;;;9.10;;
56949;SDS011;74437;50.080;19.924;2024-01-16T08:02:13;19.83;;;8.70;;
56949;SDS011;74437;50.080;19.924;2024-01-16T08:04:38;18.67;;;9.30;;
56949;SDS011;74437;50.080;19.924;2024-01-16T08:07:03;16.45;;;8.95;;
56949;SDS011;74437;50.080;19.924;2024-01-16T08:09:29;20.02;;;8.82;;
56949;SDS011;74437;50.080;19.924;2024-01-16T08:11:54;20.85;;;9.32;;
56949;SDS011;74437;50.080;19.924;2024-01-16T08:14:19;18.70;;;8.93;;
56949;SDS011;74437;50.080;19.924;2024-01-16T08:16:44;17.77;;;9.20;;
56949;SDS011;74437;50.080;19.924;2024-01-16T08:19:10;25.02;;;9.68;;
56949;SDS011;74437;50.080;19.924;2024-01-16T08:21:35;24.23;;;8.98;;
56949;SDS011;74437;50.080;19.924;2024-01-16T08:24:01;16.58;;;7.97;;
56949;SDS011;74437;50.080;19.924;2024-01-16T08:26:27;20.95;;;8.77;;
56949;SDS011;74437;50.080;19.924;2024-01-16T08:28:52;21.10;;;9.52;;
56949;SDS011;74437;50.080;19.924;2024-01-16T08:31:18;16.85;;;9.02;;
56949;SDS011;74437;50.080;19.924;2024-01-16T08:33:46;18.17;;;9.52;;
56949;SDS011;74437;50.080;19.924;2024-01-16T08:36:12;18.13;;;9.48;;
56949;SDS011;74437;50.080;19.924;2024-01-16T08:38:37;20.13;;;9.88;;
56949;SDS011;74437;50.080;19.924;2024-01-16T08:41:03;19.75;;;9.05;;
56949;SDS011;74437;50.080;19.924;2024-01-16T08:43:31;15.48;;;8.63;;
56949;SDS011;74437;50.080;19.924;2024-01-16T08:45:57;13.60;;;7.05;;
56949;SDS011;74437;50.080;19.924;2024-01-16T08:48:22;15.85;;;7.70;;
56949;SDS011;74437;50.080;19.924;2024-01-16T08:50:47;14.05;;;6.90;;
56949;SDS011;74437;50.080;19.924;2024-01-16T08:53:13;21.50;;;7.97;;
56949;SDS011;74437;50.080;19.924;2024-01-16T08:55:38;13.02;;;7.53;;
56949;SDS011;74437;50.080;19.924;2024-01-16T08:58:03;22.58;;;8.00;;
56949;SDS011;74437;50.080;19.924;2024-01-16T09:00:29;13.77;;;7.30;;
56949;SDS011;74437;50.080;19.924;2024-01-16T09:02:54;16.63;;;7.57;;
56949;SDS011;74437;50.080;19.924;2024-01-16T09:05:19;12.85;;;6.35;;
56949;SDS011;74437;50.080;19.924;2024-01-16T09:07:50;12.07;;;6.55;;
56949;SDS011;74437;50.080;19.924;2024-01-16T09:10:15;10.35;;;4.70;;
56949;SDS011;74437;50.080;19.924;2024-01-16T09:12:40;11.75;;;6.30;;
56949;SDS011;74437;50.080;19.924;2024-01-16T09:15:06;12.55;;;6.10;;
56949;SDS011;74437;50.080;19.924;2024-01-16T09:17:32;13.10;;;5.55;;
56949;SDS011;74437;50.080;19.924;2024-01-16T09:19:57;9.93;;;5.50;;
56949;SDS011;74437;50.080;19.924;2024-01-16T09:22:22;12.55;;;5.20;;
56949;SDS011;74437;50.080;19.924;2024-01-16T09:24:47;6.25;;;3.03;;
56949;SDS011;74437;50.080;19.924;2024-01-16T09:27:13;7.82;;;4.88;;
56949;SDS011;74437;50.080;19.924;2024-01-16T09:29:39;9.13;;;4.72;;
56949;SDS011;74437;50.080;19.924;2024-01-16T09:32:05;11.52;;;4.20;;
56949;SDS011;74437;50.080;19.924;2024-01-16T09:34:30;10.73;;;4.20;;
56949;SDS011;74437;50.080;19.924;2024-01-16T09:36:55;8.57;;;4.10;;
56949;SDS011;74437;50.080;19.924;2024-01-16T09:39:24;12.90;;;4.97;;
56949;SDS011;74437;50.080;19.924;2024-01-16T09:41:49;11.07;;;4.80;;
56949;SDS011;74437;50.080;19.924;2024-01-16T09:44:14;9.38;;;4.30;;
56949;SDS011;74437;50.080;19.924;2024-01-16T09:46:40;8.23;;;2.78;;
56949;SDS011;74437;50.080;19.924;2024-01-16T09:49:11;8.35;;;4.05;;
56949;SDS011;74437;50.080;19.924;2024-01-16T09:51:37;10.18;;;4.05;;
56949;SDS011;74437;50.080;19.924;2024-01-16T09:54:02;5.05;;;2.63;;
56949;SDS011;74437;50.080;19.924;2024-01-16T09:56:33;7.85;;;4.10;;
56949;SDS011;74437;50.080;19.924;2024-01-16T09:59:04;6.90;;;3.78;;
56949;SDS011;74437;50.080;19.924;2024-01-16T10:01:31;8.00;;;3.72;;
56949;SDS011;74437;50.080;19.924;2024-01-16T10:03:58;10.02;;;4.47;;
56949;SDS011;74437;50.080;19.924;2024-01-16T10:06:23;4.15;;;2.67;;
56949;SDS011;74437;50.080;19.924;2024-01-16T10:08:49;5.70;;;2.67;;
56949;SDS011;74437;50.080;19.924;2024-01-16T10:11:14;5.95;;;3.22;;
56949;SDS011;74437;50.080;19.924;2024-01-16T10:13:40;5.90;;;3.30;;
56949;SDS011;74437;50.080;19.924;2024-01-16T10:16:06;5.70;;;3.40;;
56949;SDS011;74437;50.080;19.924;2024-01-16T10:18:32;12.55;;;3.97;;
56949;SDS011;74437;50.080;19.924;2024-01-16T10:20:59;10.60;;;3.70;;
56949;SDS011;74437;50.080;19.924;2024-01-16T10:23:25;8.73;;;4.43;;
56949;SDS011;74437;50.080;19.924;2024-01-16T10:28:32;8.73;;;4.65;;
56949;SDS011;74437;50.080;19.924;2024-01-16T10:31:05;12.60;;;4.88;;
56949;SDS011;74437;50.080;19.924;2024-01-16T10:33:33;9.35;;;4.95;;
56949;SDS011;74437;50.080;19.924;2024-01-16T10:36:11;6.38;;;4.05;;
56949;SDS011;74437;50.080;19.924;2024-01-16T10:38:38;11.00;;;4.70;;
56949;SDS011;74437;50.080;19.924;2024-01-16T10:43:35;10.75;;;5.30;;
56949;SDS011;74437;50.080;19.924;2024-01-16T10:46:11;12.88;;;4.72;;
56949;SDS011;74437;50.080;19.924;2024-01-16T10:48:38;12.80;;;5.72;;
56949;SDS011;74437;50.080;19.924;2024-01-16T10:51:05;12.98;;;5.20;;
56949;SDS011;74437;50.080;19.924;2024-01-16T10:53:32;10.95;;;5.32;;
56949;SDS011;74437;50.080;19.924;2024-01-16T10:55:59;12.40;;;4.72;;
56949;SDS011;74437;50.080;19.924;2024-01-16T10:58:26;14.00;;;5.97;;
56949;SDS011;74437;50.080;19.924;2024-01-16T11:00:56;10.75;;;5.57;;
56949;SDS011;74437;50.080;19.924;2024-01-16T11:03:38;12.45;;;6.05;;
56949;SDS011;74437;50.080;19.924;2024-01-16T11:06:07;7.55;;;4.55;;
56949;SDS011;74437;50.080;19.924;2024-01-16T11:08:34;14.02;;;6.20;;
56949;SDS011;74437;50.080;19.924;2024-01-16T11:11:04;10.98;;;5.25;;
56949;SDS011;74437;50.080;19.924;2024-01-16T11:13:33;11.48;;;5.85;;
56949;SDS011;74437;50.080;19.924;2024-01-16T11:15:59;10.45;;;5.80;;
56949;SDS011;74437;50.080;19.924;2024-01-16T11:18:27;14.77;;;5.50;;
56949;SDS011;74437;50.080;19.924;2024-01-16T11:20:54;8.60;;;5.18;;
56949;SDS011;74437;50.080;19.924;2024-01-16T11:23:20;13.98;;;5.55;;
56949;SDS011;74437;50.080;19.924;2024-01-16T11:25:46;14.32;;;5.72;;
56949;SDS011;74437;50.080;19.924;2024-01-16T11:28:12;10.45;;;4.90;;
56949;SDS011;74437;50.080;19.924;2024-01-16T11:30:38;12.32;;;5.47;;
56949;SDS011;74437;50.080;19.924;2024-01-16T11:33:04;10.48;;;5.45;;
56949;SDS011;74437;50.080;19.924;2024-01-16T11:35:33;9.98;;;5.18;;
56949;SDS011;74437;50.080;19.924;2024-01-16T11:38:05;13.38;;;5.20;;
56949;SDS011;74437;50.080;19.924;2024-01-16T11:40:33;10.93;;;5.07;;
56949;SDS011;74437;50.080;19.924;2024-01-16T11:42:59;8.05;;;4.68;;
56949;SDS011;74437;50.080;19.924;2024-01-16T11:46:03;13.48;;;5.40;;
56949;SDS011;74437;50.080;19.924;2024-01-16T11:48:32;12.70;;;5.32;;
56949;SDS011;74437;50.080;19.924;2024-01-16T11:50:58;9.82;;;5.20;;
56949;SDS011;74437;50.080;19.924;2024-01-16T11:58:48;6.88;;;4.10;;
56949;SDS011;74437;50.080;19.924;2024-01-16T12:01:22;10.40;;;5.30;;
56949;SDS011;74437;50.080;19.924;2024-01-16T12:04:07;11.40;;;5.10;;
56949;SDS011;74437;50.080;19.924;2024-01-16T12:06:34;6.18;;;3.60;;
56949;SDS011;74437;50.080;19.924;2024-01-16T12:12:04;8.18;;;3.97;;
56949;SDS011;74437;50.080;19.924;2024-01-16T12:14:30;11.63;;;4.30;;
56949;SDS011;74437;50.080;19.924;2024-01-16T12:17:11;11.18;;;4.80;;
56949;SDS011;74437;50.080;19.924;2024-01-16T12:19:37;9.85;;;4.50;;
56949;SDS011;74437;50.080;19.924;2024-01-16T12:22:05;11.50;;;4.47;;
56949;SDS011;74437;50.080;19.924;2024-01-16T12:24:33;8.77;;;5.15;;
56949;SDS011;74437;50.080;19.924;2024-01-16T12:26:58;9.85;;;4.95;;
56949;SDS011;74437;50.080;19.924;2024-01-16T12:29:23;10.32;;;4.90;;
56949;SDS011;74437;50.080;19.924;2024-01-16T12:31:49;11.43;;;4.40;;
56949;SDS011;74437;50.080;19.924;2024-01-16T12:34:14;9.52;;;4.28;;
56949;SDS011;74437;50.080;19.924;2024-01-16T12:36:39;10.52;;;4.95;;
56949;SDS011;74437;50.080;19.924;2024-01-16T12:39:04;8.38;;;4.85;;
56949;SDS011;74437;50.080;19.924;2024-01-16T12:41:32;9.57;;;4.80;;
56949;SDS011;74437;50.080;19.924;2024-01-16T12:44:03;6.15;;;3.67;;
56949;SDS011;74437;50.080;19.924;2024-01-16T12:46:29;12.70;;;4.43;;
56949;SDS011;74437;50.080;19.924;2024-01-16T12:49:00;10.70;;;4.13;;
56949;SDS011;74437;50.080;19.924;2024-01-16T12:51:28;7.70;;;3.83;;
56949;SDS011;74437;50.080;19.924;2024-01-16T12:53:54;7.18;;;3.22;;
56949;SDS011;74437;50.080;19.924;2024-01-16T12:56:38;5.40;;;3.05;;
56949;SDS011;74437;50.080;19.924;2024-01-16T12:59:12;4.13;;;2.70;;
56949;SDS011;74437;50.080;19.924;2024-01-16T13:04:15;5.45;;;3.15;;
56949;SDS011;74437;50.080;19.924;2024-01-16T13:06:41;6.07;;;3.35;;
56949;SDS011;74437;50.080;19.924;2024-01-16T13:09:09;5.97;;;3.17;;
56949;SDS011;74437;50.080;19.924;2024-01-16T13:11:45;7.55;;;3.08;;
56949;SDS011;74437;50.080;19.924;2024-01-16T13:14:11;6.90;;;3.45;;
56949;SDS011;74437;50.080;19.924;2024-01-16T13:16:37;5.57;;;3.20;;
56949;SDS011;74437;50.080;19.924;2024-01-16T13:19:02;8.10;;;3.45;;
56949;SDS011;74437;50.080;19.924;2024-01-16T13:21:30;7.75;;;3.50;;
56949;SDS011;74437;50.080;19.924;2024-01-16T13:23:55;6.63;;;3.25;;
56949;SDS011;74437;50.080;19.924;2024-01-16T13:26:21;7.18;;;2.80;;
56949;SDS011;74437;50.080;19.924;2024-01-16T13:28:46;7.75;;;3.22;;
56949;SDS011;74437;50.080;19.924;2024-01-16T13:31:12;5.35;;;2.30;;
56949;SDS011;74437;50.080;19.924;2024-01-16T13:33:38;6.75;;;3.17;;
56949;SDS011;74437;50.080;19.924;2024-01-16T13:36:04;5.55;;;2.50;;
56949;SDS011;74437;50.080;19.924;2024-01-16T13:38:30;4.75;;;2.60;;
56949;SDS011;74437;50.080;19.924;2024-01-16T13:40:55;5.63;;;2.45;;
56949;SDS011;74437;50.080;19.924;2024-01-16T13:43:21;5.47;;;2.65;;
56949;SDS011;74437;50.080;19.924;2024-01-16T13:45:46;6.43;;;2.40;;
56949;SDS011;74437;50.080;19.924;2024-01-16T13:48:14;7.05;;;2.85;;
56949;SDS011;74437;50.080;19.924;2024-01-16T13:50:41;6.88;;;3.17;;
56949;SDS011;74437;50.080;19.924;2024-01-16T13:53:06;6.15;;;3.30;;
56949;SDS011;74437;50.080;19.924;2024-01-16T13:55:32;5.68;;;3.13;;
56949;SDS011;74437;50.080;19.924;2024-01-16T13:57:58;8.35;;;3.65;;
56949;SDS011;74437;50.080;19.924;2024-01-16T14:00:23;9.30;;;4.03;;
56949;SDS011;74437;50.080;19.924;2024-01-16T14:02:48;7.05;;;4.00;;
56949;SDS011;74437;50.080;19.924;2024-01-16T14:05:15;11.15;;;4.57;;
56949;SDS011;74437;50.080;19.924;2024-01-16T14:07:45;10.15;;;4.47;;
56949;SDS011;74437;50.080;19.924;2024-01-16T14:10:12;9.60;;;4.72;;
56949;SDS011;74437;50.080;19.924;2024-01-16T14:12:39;11.48;;;4.93;;
56949;SDS011;74437;50.080;19.924;2024-01-16T14:15:07;10.98;;;5.18;;
56949;SDS011;74437;50.080;19.924;2024-01-16T14:17:44;8.13;;;4.97;;
56949;SDS011;74437;50.080;19.924;2024-01-16T14:20:15;8.70;;;4.75;;
56949;SDS011;74437;50.080;19.924;2024-01-16T14:22:40;9.85;;;5.10;;
56949;SDS011;74437;50.080;19.924;2024-01-16T14:25:07;11.27;;;5.53;;
56949;SDS011;74437;50.080;19.924;2024-01-16T14:27:43;11.40;;;5.30;;
56949;SDS011;74437;50.080;19.924;2024-01-16T14:30:11;9.52;;;5.53;;
56949;SDS011;74437;50.080;19.924;2024-01-16T14:32:41;13.88;;;5.78;;
56949;SDS011;74437;50.080;19.924;2024-01-16T14:35:10;12.75;;;5.85;;
56949;SDS011;74437;50.080;19.924;2024-01-16T14:37:38;11.18;;;6.05;;